createdAt,value
2022-09-15T00:03:01.614Z,6.9
2022-09-15T00:08:01.608Z,7.1
2022-09-15T00:13:01.881Z,7.0
2022-09-15T00:28:01.721Z,6.4
2022-09-15T00:33:01.874Z,6.2
2022-09-15T00:38:01.739Z,6.2
2022-09-15T00:43:01.931Z,6.6
2022-09-15T00:48:01.753Z,6.1
2022-09-15T00:53:01.885Z,6.2
2022-09-15T00:58:01.754Z,6.3
2022-09-15T01:08:01.709Z,6.8
2022-09-15T01:13:01.947Z,7.2
2022-09-15T01:18:01.580Z,7.6
2022-09-15T01:23:01.563Z,7.6
2022-09-15T01:33:01.816Z,7.7
2022-09-15T01:38:01.810Z,8.2
2022-09-15T01:43:01.762Z,7.8
2022-09-15T01:48:01.743Z,8.8
2022-09-15T01:53:01.661Z,9.1
2022-09-15T01:58:01.843Z,9.4
2022-09-15T02:03:01.777Z,9.2
2022-09-15T02:08:01.745Z,9.7
2022-09-15T02:13:01.814Z,8.8
2022-09-15T02:18:01.814Z,8.3
2022-09-15T02:23:01.739Z,8.4
2022-09-15T02:28:01.737Z,8.3
2022-09-15T02:33:01.848Z,6.8
2022-09-15T02:38:01.726Z,7.2
2022-09-15T02:43:01.855Z,7.0
2022-09-15T02:48:01.758Z,6.3
2022-09-15T02:53:01.870Z,6.3
2022-09-15T02:58:01.960Z,7.2
2022-09-15T03:03:01.675Z,7.2
2022-09-15T03:08:01.783Z,7.6
2022-09-15T03:13:01.881Z,8.0
2022-09-15T03:18:02.301Z,7.9
2022-09-15T03:23:01.751Z,7.7
2022-09-15T03:28:01.765Z,7.7
2022-09-15T03:33:01.518Z,7.6
2022-09-15T03:38:01.710Z,7.5
2022-09-15T03:48:01.712Z,7.5
2022-09-15T03:53:01.881Z,7.0
2022-09-15T03:58:01.728Z,6.5
2022-09-15T04:03:01.742Z,6.3
2022-09-15T04:08:01.621Z,6.1
2022-09-15T04:13:01.754Z,6.2
2022-09-15T04:18:01.799Z,6.6
2022-09-15T04:23:01.715Z,7.4
2022-09-15T04:28:01.719Z,7.5
2022-09-15T04:33:01.825Z,8.1
2022-09-15T04:38:01.807Z,7.6
2022-09-15T04:43:01.722Z,7.0
2022-09-15T04:48:01.750Z,6.3
2022-09-15T04:53:02.023Z,6.6
2022-09-15T04:58:01.747Z,6.7
2022-09-15T05:03:01.760Z,7.7
2022-09-15T05:08:02.606Z,8.3
2022-09-15T05:13:01.867Z,8.4
2022-09-15T05:18:02.231Z,8.6
2022-09-15T05:23:01.855Z,8.6
2022-09-15T05:28:01.729Z,9.2
2022-09-15T05:33:01.719Z,8.2
2022-09-15T05:38:01.760Z,8.4
2022-09-15T05:43:01.738Z,8.2
2022-09-15T05:48:01.731Z,8.3
2022-09-15T05:53:01.820Z,7.2
2022-09-15T05:58:01.728Z,8.4
2022-09-15T06:03:01.920Z,9.0
2022-09-15T06:08:01.760Z,9.0
2022-09-15T06:13:01.948Z,9.8
2022-09-15T06:18:02.140Z,10.2
2022-09-15T06:23:01.752Z,10.0
2022-09-15T06:28:01.745Z,9.7
2022-09-15T06:33:01.887Z,9.7
2022-09-15T06:39:01.738Z,9.4
2022-09-15T06:44:01.752Z,9.3
2022-09-15T06:49:02.386Z,9.3
2022-09-15T06:54:02.569Z,9.0
2022-09-15T06:59:01.659Z,8.7
2022-09-15T07:04:01.714Z,8.0
2022-09-15T07:09:01.928Z,7.5
2022-09-15T07:14:02.890Z,6.8
2022-09-15T07:19:01.749Z,6.2
2022-09-15T07:24:08.014Z,6.1
2022-09-15T07:29:01.656Z,5.6
2022-09-15T07:34:01.718Z,5.4
2022-09-15T07:39:01.720Z,5.6
2022-09-15T07:44:02.028Z,5.8
2022-09-15T07:49:01.815Z,5.4
2022-09-15T07:54:01.774Z,5.4
2022-09-15T07:59:01.724Z,5.8
2022-09-15T08:04:02.277Z,6.1
2022-09-15T08:09:02.665Z,6.5
2022-09-15T08:14:01.735Z,7.4
2022-09-15T08:19:01.731Z,8.4
2022-09-15T08:24:02.182Z,8.4
2022-09-15T08:29:01.792Z,8.2
2022-09-15T08:34:01.740Z,7.8
2022-09-15T08:39:01.782Z,7.4
2022-09-15T08:44:01.757Z,6.4
2022-09-15T08:49:03.541Z,5.8
2022-09-15T08:54:01.691Z,5.6
2022-09-15T08:59:01.734Z,5.4
2022-09-15T09:04:01.836Z,5.0
2022-09-15T09:09:01.746Z,4.9
2022-09-15T09:14:01.740Z,4.7
2022-09-15T09:19:01.570Z,4.7
2022-09-15T09:24:01.684Z,4.7
2022-09-15T09:29:01.571Z,4.6
2022-09-15T09:34:01.388Z,5.1
2022-09-15T09:39:01.459Z,5.0
2022-09-15T09:44:01.647Z,4.9
2022-09-15T09:49:01.734Z,4.3
2022-09-15T09:54:01.344Z,3.9
2022-09-15T09:59:01.769Z,2.8
2022-09-15T10:04:01.490Z,2.3
2022-09-15T10:09:01.410Z,1.8
2022-09-15T10:14:01.994Z,1.8
2022-09-15T10:19:02.143Z,1.8
2022-09-15T10:24:01.764Z,2.2
2022-09-15T10:29:01.945Z,2.6
2022-09-15T10:34:01.393Z,2.9
2022-09-15T10:39:15.263Z,3.5
2022-09-15T10:44:01.485Z,3.5
2022-09-15T10:49:13.395Z,3.7
2022-09-15T10:54:01.598Z,3.8
2022-09-15T10:59:01.669Z,4.0
2022-09-15T11:04:01.655Z,4.0
2022-09-15T11:09:01.460Z,4.6
2022-09-15T11:14:17.563Z,4.9
2022-09-15T11:19:01.652Z,5.2
2022-09-15T11:24:17.059Z,5.5
2022-09-15T11:29:01.750Z,5.5
2022-09-15T11:34:01.963Z,5.2
2022-09-15T11:39:01.748Z,5.0
2022-09-15T11:44:01.808Z,4.7
2022-09-15T11:54:01.789Z,4.7
2022-09-15T12:04:01.138Z,5.2
2022-09-15T12:09:01.768Z,5.6
2022-09-15T12:14:01.916Z,5.9
2022-09-15T12:19:01.768Z,6.2
2022-09-15T12:24:17.442Z,6.6
2022-09-15T12:29:01.594Z,6.8
2022-09-15T12:34:17.468Z,6.9
2022-09-15T12:39:04.297Z,6.8
2022-09-15T12:44:01.744Z,6.6
2022-09-15T12:49:02.602Z,7.0
2022-09-15T12:54:01.875Z,6.9
2022-09-15T12:59:07.416Z,7.5
2022-09-15T13:04:01.755Z,7.7
2022-09-15T13:09:01.847Z,8.2
2022-09-15T13:14:01.834Z,8.0
2022-09-15T13:24:04.419Z,7.4
2022-09-15T13:29:03.803Z,7.1
2022-09-15T13:55:17.919Z,5.0
2022-09-15T14:00:03.074Z,4.8
2022-09-15T14:05:01.830Z,4.5
2022-09-15T14:10:01.764Z,4.5
2022-09-15T14:16:01.832Z,4.4
2022-09-15T14:21:01.852Z,4.0
2022-09-15T14:26:01.587Z,3.9
2022-09-15T14:31:01.637Z,3.9
2022-09-15T14:41:01.816Z,4.2
2022-09-15T15:05:07.981Z,3.0
2022-09-15T15:15:02.432Z,3.2
2022-09-15T15:20:13.726Z,3.1
2022-09-15T15:25:01.773Z,3.0
2022-09-15T15:30:17.373Z,3.0
2022-09-15T15:40:02.281Z,2.4
2022-09-15T15:45:17.544Z,2.1
2022-09-15T15:55:01.722Z,1.9
2022-09-15T16:00:03.573Z,2.1
2022-09-15T16:05:01.736Z,2.1
2022-09-15T16:15:09.214Z,1.9
2022-09-15T16:20:01.716Z,1.5
2022-09-15T16:25:01.709Z,1.1
2022-09-15T16:30:02.656Z,0.9
2022-09-15T16:35:01.819Z,1.1
2022-09-15T16:40:01.962Z,1.1
2022-09-15T16:45:02.468Z,1.5
2022-09-15T16:50:01.752Z,1.6
2022-09-15T17:00:03.460Z,1.8
2022-09-15T17:05:01.670Z,1.8
2022-09-15T17:15:09.884Z,1.8
2022-09-15T17:20:01.670Z,2.0
2022-09-15T17:25:08.781Z,1.8
2022-09-15T17:30:02.187Z,2.0
2022-09-15T17:35:01.739Z,2.2
2022-09-15T17:40:01.932Z,2.4
2022-09-15T17:45:02.287Z,2.4
2022-09-15T17:50:01.750Z,3.0
2022-09-15T17:55:01.837Z,3.0
2022-09-15T18:00:02.856Z,3.3
2022-09-15T18:05:01.774Z,3.9
2022-09-15T18:10:01.770Z,3.9
2022-09-15T18:15:03.038Z,3.7
2022-09-15T18:20:01.726Z,3.7
2022-09-15T18:25:02.416Z,3.6
2022-09-15T18:30:02.316Z,3.2
2022-09-15T18:35:01.755Z,3.2
2022-09-15T18:40:02.034Z,3.2
2022-09-15T18:45:02.791Z,3.2
2022-09-15T18:50:01.754Z,3.3
2022-09-15T18:55:01.835Z,3.0
2022-09-15T19:00:04.214Z,2.7
2022-09-15T19:05:01.790Z,2.5
2022-09-15T19:10:01.818Z,2.1
2022-09-15T19:15:03.163Z,1.6
2022-09-15T19:20:01.851Z,1.5
2022-09-15T19:25:01.751Z,1.4
2022-09-15T19:30:02.383Z,1.4
2022-09-15T19:35:01.777Z,1.6
2022-09-15T19:40:01.957Z,1.7
2022-09-15T19:45:02.594Z,1.6
2022-09-15T19:50:01.747Z,1.6
2022-09-15T19:55:01.900Z,1.5
2022-09-15T20:00:03.425Z,1.3
2022-09-15T20:05:01.771Z,1.4
2022-09-15T20:10:01.723Z,1.3
2022-09-15T20:15:02.224Z,1.2
2022-09-15T20:20:01.821Z,1.3
2022-09-15T20:25:01.722Z,1.3
2022-09-15T20:30:02.834Z,1.2
2022-09-15T20:35:02.395Z,1.1
2022-09-15T20:45:03.304Z,0.9
2022-09-15T20:50:01.726Z,0.7
2022-09-15T20:55:01.804Z,0.7
2022-09-15T21:00:02.497Z,0.7
2022-09-15T21:05:01.745Z,0.5
2022-09-15T21:10:01.785Z,0.5
2022-09-15T21:15:02.357Z,0.5
2022-09-15T21:20:01.730Z,0.4
2022-09-15T21:25:01.712Z,0.2
2022-09-15T21:30:02.465Z,0.4
2022-09-15T21:35:02.051Z,0.3
2022-09-15T21:45:02.147Z,0.3
2022-09-15T21:50:01.841Z,0.5
2022-09-15T21:55:01.840Z,0.3
2022-09-15T22:00:03.144Z,0.5
2022-09-15T22:05:01.745Z,0.8
2022-09-15T22:15:02.764Z,1.3
2022-09-15T22:20:01.755Z,1.7
2022-09-15T22:25:01.884Z,2.0
2022-09-15T22:30:02.639Z,1.8
2022-09-15T22:35:01.942Z,2.2
2022-09-15T22:45:02.174Z,2.2
2022-09-15T22:50:01.760Z,2.1
2022-09-15T23:00:02.654Z,1.4
2022-09-15T23:05:01.627Z,1.0
2022-09-15T23:10:01.733Z,0.6
2022-09-15T23:15:02.228Z,0.4
2022-09-15T23:20:01.871Z,0.4
2022-09-15T23:25:01.837Z,0.4
2022-09-15T23:30:02.561Z,0.4
2022-09-15T23:40:02.229Z,0.2
2022-09-15T23:45:02.602Z,0.2
2022-09-15T23:50:01.713Z,0.1
2022-09-15T23:55:01.727Z,0.3
